createdAt,value
2018-07-15T00:01:43.332Z,198.07
2018-07-15T00:04:14.604Z,190.92
2018-07-15T00:06:45.972Z,191.22
2018-07-15T00:09:17.211Z,186.47
2018-07-15T00:11:48.582Z,187.35
2018-07-15T00:14:22.295Z,186.43
2018-07-15T00:16:54.138Z,187.40
2018-07-15T00:19:25.490Z,192.77
2018-07-15T00:21:56.736Z,188.12
2018-07-15T00:24:28.021Z,191.37
2018-07-15T00:26:59.513Z,187.85
2018-07-15T00:29:30.840Z,183.10
2018-07-15T00:32:02.680Z,182.62
2018-07-15T00:34:34.023Z,187.15
2018-07-15T00:37:05.230Z,184.85
2018-07-15T00:39:36.541Z,186.77
2018-07-15T00:42:07.875Z,185.52
2018-07-15T00:44:39.007Z,186.32
2018-07-15T00:47:10.214Z,191.03
2018-07-15T00:49:41.453Z,190.85
2018-07-15T00:52:12.777Z,189.22
2018-07-15T00:54:43.972Z,189.20
2018-07-15T00:57:15.479Z,188.68
2018-07-15T00:59:46.890Z,190.38
2018-07-15T01:02:19.041Z,193.20
2018-07-15T01:04:50.986Z,189.55
2018-07-15T01:07:22.508Z,194.43
2018-07-15T01:09:53.666Z,186.18
2018-07-15T01:12:25.501Z,188.00
2018-07-15T01:14:56.751Z,187.22
2018-07-15T01:17:28.007Z,186.90
2018-07-15T01:19:59.371Z,186.55
2018-07-15T01:22:30.598Z,188.65
2018-07-15T01:25:03.533Z,184.95
2018-07-15T01:27:35.555Z,186.45
2018-07-15T01:30:06.764Z,186.28
2018-07-15T01:32:38.201Z,187.32
2018-07-15T01:35:09.373Z,185.63
2018-07-15T01:37:41.374Z,187.70
2018-07-15T01:40:12.615Z,184.30
2018-07-15T01:42:44.251Z,194.02
2018-07-15T01:45:16.466Z,187.43
2018-07-15T01:47:48.498Z,185.88
2018-07-15T01:50:20.466Z,184.87
2018-07-15T01:52:52.760Z,184.20
2018-07-15T01:55:23.779Z,186.05
2018-07-15T01:57:54.994Z,186.37
2018-07-15T02:00:26.645Z,186.52
2018-07-15T02:02:57.790Z,181.85
2018-07-15T02:05:29.031Z,185.73
2018-07-15T02:08:00.229Z,183.70
2018-07-15T02:10:32.033Z,183.93
2018-07-15T02:13:04.312Z,183.93
2018-07-15T02:15:35.601Z,187.30
2018-07-15T02:18:07.717Z,186.97
2018-07-15T02:20:39.651Z,186.00
2018-07-15T02:23:11.097Z,185.28
2018-07-15T02:25:42.547Z,185.03
2018-07-15T02:28:13.772Z,188.27
2018-07-15T02:30:45.165Z,191.73
2018-07-15T02:33:21.441Z,183.30
2018-07-15T02:35:52.582Z,187.18
2018-07-15T02:38:23.907Z,189.05
2018-07-15T02:40:55.152Z,184.20
2018-07-15T02:43:26.827Z,185.25
2018-07-15T02:45:57.996Z,183.42
2018-07-15T02:48:29.839Z,179.97
2018-07-15T02:53:58.888Z,182.85
2018-07-15T02:56:38.228Z,183.03
2018-07-15T02:59:09.704Z,178.78
2018-07-15T03:01:40.887Z,181.47
2018-07-15T03:04:12.059Z,180.15
2018-07-15T03:06:43.121Z,184.55
2018-07-15T03:09:14.298Z,182.05
2018-07-15T03:11:45.890Z,179.55
2018-07-15T03:14:17.014Z,189.13
2018-07-15T03:16:48.305Z,207.12
2018-07-15T03:19:19.761Z,187.92
2018-07-15T03:21:51.066Z,188.45
2018-07-15T03:24:22.475Z,183.42
2018-07-15T03:26:53.640Z,181.12
2018-07-15T03:29:25.223Z,181.70
2018-07-15T03:31:56.509Z,179.10
2018-07-15T03:34:27.684Z,180.63
2018-07-15T03:36:59.079Z,179.53
2018-07-15T03:39:30.283Z,176.42
2018-07-15T03:42:02.560Z,179.78
2018-07-15T03:44:33.932Z,177.02
2018-07-15T03:47:05.015Z,178.02
2018-07-15T03:49:36.481Z,185.90
2018-07-15T03:52:07.719Z,186.03
2018-07-15T03:54:39.541Z,176.97
2018-07-15T03:57:10.737Z,185.25
2018-07-15T03:59:41.890Z,179.70
2018-07-15T04:02:13.077Z,177.17
2018-07-15T04:04:44.208Z,178.97
2018-07-15T04:07:15.416Z,181.52
2018-07-15T04:09:46.755Z,180.40
2018-07-15T04:12:17.903Z,180.40
2018-07-15T04:14:49.486Z,176.93
2018-07-15T04:17:20.743Z,179.82
2018-07-15T04:19:52.271Z,180.95
2018-07-15T04:22:23.323Z,182.30
2018-07-15T04:24:54.847Z,179.65
2018-07-15T04:27:26.056Z,179.65
2018-07-15T04:29:57.184Z,182.97
2018-07-15T04:32:28.427Z,180.93
2018-07-15T04:34:59.616Z,181.95
2018-07-15T04:37:31.136Z,179.18
2018-07-15T04:40:02.635Z,179.23
2018-07-15T04:42:33.736Z,181.65
2018-07-15T04:45:07.704Z,180.78
2018-07-15T04:47:38.835Z,183.37
2018-07-15T04:50:10.079Z,182.27
2018-07-15T04:52:41.644Z,187.40
2018-07-15T04:55:16.397Z,180.22
2018-07-15T04:57:48.062Z,180.95
2018-07-15T05:00:21.879Z,181.85
2018-07-15T05:02:53.022Z,180.78
2018-07-15T05:05:26.293Z,186.57
2018-07-15T05:07:57.389Z,185.10
2018-07-15T05:10:28.676Z,183.62
2018-07-15T05:13:00.860Z,182.22
2018-07-15T05:15:34.106Z,184.72
2018-07-15T05:18:06.224Z,183.07
2018-07-15T05:20:38.255Z,186.92
2018-07-15T05:23:10.597Z,185.22
2018-07-15T05:25:42.151Z,187.03
2018-07-15T05:28:13.402Z,183.07
2018-07-15T05:30:44.625Z,184.97
2018-07-15T05:33:15.850Z,186.43
2018-07-15T05:35:47.065Z,186.20
2018-07-15T05:38:18.254Z,191.85
2018-07-15T05:40:49.774Z,188.10
2018-07-15T05:43:20.938Z,190.80
2018-07-15T05:45:52.731Z,188.65
2018-07-15T05:48:23.926Z,191.82
2018-07-15T05:50:55.115Z,194.60
2018-07-15T05:53:26.638Z,193.17
2018-07-15T05:55:57.783Z,194.25
2018-07-15T05:58:29.033Z,193.50
2018-07-15T06:01:00.692Z,191.98
2018-07-15T06:03:31.914Z,195.12
2018-07-15T06:06:03.152Z,194.02
2018-07-15T06:08:34.415Z,205.20
2018-07-15T06:11:05.528Z,219.77
2018-07-15T06:13:36.788Z,202.00
2018-07-15T06:16:07.883Z,199.60
2018-07-15T06:18:39.031Z,206.35
2018-07-15T06:21:10.338Z,202.32
2018-07-15T06:23:41.605Z,189.75
2018-07-15T06:26:12.863Z,194.35
2018-07-15T06:28:43.955Z,194.90
2018-07-15T06:31:15.317Z,196.90
2018-07-15T06:33:46.731Z,191.95
2018-07-15T06:36:18.019Z,202.80
2018-07-15T06:38:49.107Z,195.85
2018-07-15T06:41:20.436Z,195.00
2018-07-15T06:43:51.711Z,193.87
2018-07-15T06:46:22.942Z,191.45
2018-07-15T06:48:54.211Z,196.75
2018-07-15T06:51:25.578Z,195.57
2018-07-15T06:53:56.942Z,196.45
2018-07-15T06:56:28.159Z,205.80
2018-07-15T06:58:59.265Z,201.32
2018-07-15T07:01:30.824Z,197.95
2018-07-15T07:04:02.069Z,198.00
2018-07-15T07:06:33.490Z,198.57
2018-07-15T07:09:05.784Z,201.58
2018-07-15T07:11:38.438Z,198.30
2018-07-15T07:14:10.077Z,189.82
2018-07-15T07:16:41.569Z,192.92
2018-07-15T07:19:12.814Z,192.30
2018-07-15T07:21:44.069Z,192.53
2018-07-15T07:24:17.437Z,197.30
2018-07-15T07:26:48.863Z,192.80
2018-07-15T07:29:19.990Z,199.55
2018-07-15T07:31:51.249Z,198.50
2018-07-15T07:34:23.009Z,195.97
2018-07-15T07:36:54.903Z,197.32
2018-07-15T07:39:26.053Z,195.75
2018-07-15T07:41:57.385Z,199.90
2018-07-15T07:44:28.587Z,199.47
2018-07-15T07:46:59.867Z,196.15
2018-07-15T07:49:31.008Z,203.15
2018-07-15T07:52:03.567Z,199.40
2018-07-15T07:54:34.667Z,201.80
2018-07-15T07:57:07.711Z,202.85
2018-07-15T07:59:40.071Z,198.43
2018-07-15T08:02:15.507Z,192.60
2018-07-15T08:04:46.758Z,197.98
2018-07-15T08:07:18.043Z,201.00
2018-07-15T08:10:03.577Z,201.80
2018-07-15T08:12:36.179Z,199.60
2018-07-15T08:15:07.575Z,206.13
2018-07-15T08:17:38.843Z,197.82
2018-07-15T08:20:09.935Z,205.10
2018-07-15T08:22:41.197Z,207.43
2018-07-15T08:25:12.876Z,202.38
2018-07-15T08:27:45.524Z,206.23
2018-07-15T08:30:28.992Z,201.60
2018-07-15T08:33:00.356Z,200.22
2018-07-15T08:35:32.646Z,202.97
2018-07-15T08:38:05.660Z,200.15
2018-07-15T08:40:36.857Z,201.12
2018-07-15T08:43:09.662Z,201.62
2018-07-15T08:45:42.199Z,198.40
2018-07-15T08:48:13.397Z,201.90
2018-07-15T08:50:44.946Z,200.40
2018-07-15T08:53:16.008Z,204.65
2018-07-15T08:55:47.212Z,205.20
2018-07-15T08:58:19.697Z,204.90
2018-07-15T09:00:52.985Z,197.07
2018-07-15T09:03:24.212Z,207.50
2018-07-15T09:05:55.928Z,210.68
2018-07-15T09:08:27.108Z,208.87
2018-07-15T09:10:58.254Z,204.00
2018-07-15T09:13:29.516Z,203.10
2018-07-15T09:16:00.559Z,210.38
2018-07-15T09:18:32.118Z,213.75
2018-07-15T09:21:03.416Z,213.22
2018-07-15T09:23:34.640Z,206.68
2018-07-15T09:26:05.690Z,210.80
2018-07-15T09:28:36.794Z,211.35
2018-07-15T09:31:08.039Z,210.85
2018-07-15T09:33:39.323Z,223.35
2018-07-15T09:36:10.591Z,213.00
2018-07-15T09:38:42.206Z,210.30
2018-07-15T09:41:13.522Z,218.93
2018-07-15T09:43:44.732Z,219.72
2018-07-15T09:46:17.895Z,216.53
2018-07-15T09:48:49.059Z,221.87
2018-07-15T09:51:20.441Z,217.62
2018-07-15T09:53:51.614Z,215.22
2018-07-15T09:56:23.016Z,217.77
2018-07-15T09:58:54.473Z,205.87
2018-07-15T10:01:26.063Z,234.65
2018-07-15T10:03:57.504Z,219.55
2018-07-15T10:06:28.683Z,220.52
2018-07-15T10:09:00.010Z,214.08
2018-07-15T10:11:31.538Z,221.97
2018-07-15T10:14:02.882Z,226.55
2018-07-15T10:16:36.006Z,249.15
2018-07-15T10:19:07.664Z,230.80
2018-07-15T10:21:38.775Z,233.43
2018-07-15T10:24:09.906Z,233.82
2018-07-15T10:26:41.236Z,221.43
2018-07-15T10:29:12.303Z,224.85
2018-07-15T10:31:43.419Z,221.35
2018-07-15T10:34:14.932Z,233.57
2018-07-15T10:36:46.284Z,240.05
2018-07-15T10:39:17.387Z,225.47
2018-07-15T10:41:48.551Z,243.20
2018-07-15T10:44:19.833Z,245.78
2018-07-15T10:46:50.991Z,218.20
2018-07-15T10:49:22.948Z,235.55
2018-07-15T10:51:54.268Z,241.00
2018-07-15T10:54:25.589Z,241.53
2018-07-15T10:56:57.083Z,227.40
2018-07-15T10:59:28.564Z,240.07
2018-07-15T11:01:59.943Z,239.60
2018-07-15T11:04:32.047Z,246.55
2018-07-15T11:07:03.459Z,256.70
2018-07-15T11:09:34.599Z,236.28
2018-07-15T11:12:06.674Z,238.52
2018-07-15T11:14:38.349Z,223.60
2018-07-15T11:17:09.460Z,218.12
2018-07-15T11:19:40.671Z,233.82
2018-07-15T11:22:12.880Z,234.65
2018-07-15T11:24:44.936Z,224.88
2018-07-15T11:27:16.201Z,231.70
2018-07-15T11:29:47.373Z,225.60
2018-07-15T11:32:19.123Z,247.12
2018-07-15T11:34:50.297Z,238.00
2018-07-15T11:37:21.890Z,227.13
2018-07-15T11:39:53.189Z,229.15
2018-07-15T11:42:24.450Z,229.10
2018-07-15T11:44:55.458Z,228.88
2018-07-15T11:47:26.726Z,224.67
2018-07-15T11:49:57.973Z,218.00
2018-07-15T11:52:29.243Z,214.02
2018-07-15T11:55:00.459Z,210.53
2018-07-15T11:57:31.854Z,208.45
2018-07-15T12:00:05.720Z,219.28
2018-07-15T12:02:38.419Z,223.22
2018-07-15T12:05:12.489Z,218.63
2018-07-15T12:07:44.191Z,234.00
2018-07-15T12:10:15.262Z,218.70
2018-07-15T12:12:46.362Z,220.35
2018-07-15T12:15:20.846Z,211.12
2018-07-15T12:17:52.117Z,235.35
2018-07-15T12:20:23.539Z,213.20
2018-07-15T12:22:54.742Z,221.70
2018-07-15T12:25:27.007Z,222.98
2018-07-15T12:27:58.246Z,222.55
2018-07-15T12:30:30.661Z,215.90
2018-07-15T12:33:02.610Z,217.53
2018-07-15T12:35:34.258Z,224.07
2018-07-15T12:38:05.658Z,228.88
2018-07-15T12:40:37.469Z,228.85
2018-07-15T12:43:10.751Z,231.57
2018-07-15T12:45:41.808Z,220.70
2018-07-15T12:48:13.939Z,229.18
2018-07-15T12:50:44.987Z,223.65
2018-07-15T12:53:16.209Z,219.13
2018-07-15T12:55:47.382Z,222.63
2018-07-15T12:58:18.516Z,217.87
2018-07-15T13:00:49.844Z,221.60
2018-07-15T13:03:20.873Z,224.20
2018-07-15T13:05:51.955Z,226.45
2018-07-15T13:08:23.051Z,232.75
2018-07-15T13:10:54.182Z,225.30
2018-07-15T13:13:25.341Z,242.07
2018-07-15T13:15:56.687Z,235.10
2018-07-15T13:18:27.828Z,238.40
2018-07-15T13:20:59.044Z,229.05
2018-07-15T13:23:30.459Z,228.52
2018-07-15T13:26:01.896Z,234.22
2018-07-15T13:28:32.988Z,232.00
2018-07-15T13:31:04.116Z,229.30
2018-07-15T13:33:35.462Z,240.10
2018-07-15T13:36:06.585Z,238.25
2018-07-15T13:38:37.947Z,247.10
2018-07-15T13:41:09.269Z,228.07
2018-07-15T13:43:40.506Z,226.52
2018-07-15T13:46:11.669Z,241.57
2018-07-15T13:48:42.826Z,233.45
2018-07-15T13:51:13.944Z,227.62
2018-07-15T13:53:45.131Z,220.42
2018-07-15T13:56:16.947Z,228.62
2018-07-15T13:58:50.324Z,227.38
2018-07-15T14:01:23.878Z,226.55
2018-07-15T14:03:55.119Z,226.85
2018-07-15T14:06:26.141Z,234.95
2018-07-15T14:08:57.717Z,222.60
2018-07-15T14:11:28.807Z,223.65
2018-07-15T14:14:00.051Z,223.00
2018-07-15T14:16:31.386Z,218.70
2018-07-15T14:19:02.866Z,220.25
2018-07-15T14:21:34.110Z,221.45
2018-07-15T14:24:05.498Z,223.97
2018-07-15T14:26:36.545Z,217.95
2018-07-15T14:29:08.069Z,220.60
2018-07-15T14:31:39.036Z,220.82
2018-07-15T14:34:10.107Z,219.85
2018-07-15T14:36:41.073Z,224.75
2018-07-15T14:39:12.423Z,214.68
2018-07-15T14:41:44.999Z,222.15
2018-07-15T14:44:16.060Z,213.55
2018-07-15T14:46:47.123Z,217.28
2018-07-15T14:49:18.495Z,217.80
2018-07-15T14:51:49.491Z,229.87
2018-07-15T14:54:20.605Z,214.05
2018-07-15T14:56:51.954Z,219.13
2018-07-15T14:59:23.318Z,211.92
2018-07-15T15:01:55.272Z,214.95
2018-07-15T15:04:26.499Z,208.55
2018-07-15T15:06:57.903Z,221.70
2018-07-15T15:09:29.532Z,208.15
2018-07-15T15:12:01.303Z,208.35
2018-07-15T15:14:32.898Z,210.78
2018-07-15T15:17:03.852Z,207.03
2018-07-15T15:19:35.197Z,213.72
2018-07-15T15:22:06.743Z,209.60
2018-07-15T15:24:38.041Z,214.10
2018-07-15T15:27:09.157Z,207.95
2018-07-15T15:29:40.243Z,207.47
2018-07-15T15:32:11.443Z,204.80
2018-07-15T15:34:42.452Z,212.38
2018-07-15T15:37:13.477Z,204.30
2018-07-15T15:39:45.923Z,201.22
2018-07-15T15:42:32.890Z,201.82
2018-07-15T15:45:06.249Z,200.00
2018-07-15T15:47:38.883Z,201.65
2018-07-15T15:50:10.473Z,199.72
2018-07-15T15:52:45.823Z,208.45
2018-07-15T15:55:17.419Z,207.50
2018-07-15T15:57:50.053Z,204.55
2018-07-15T16:00:23.901Z,202.60
2018-07-15T16:02:56.826Z,205.98
2018-07-15T16:05:28.438Z,215.07
2018-07-15T16:08:01.748Z,205.20
2018-07-15T16:10:34.454Z,202.93
2018-07-15T16:13:08.040Z,200.78
2018-07-15T16:15:40.239Z,201.18
2018-07-15T16:18:12.492Z,205.15
2018-07-15T16:20:43.727Z,198.78
2018-07-15T16:23:14.996Z,207.15
2018-07-15T16:25:46.406Z,204.40
2018-07-15T16:28:17.567Z,200.45
2018-07-15T16:30:49.083Z,206.82
2018-07-15T16:33:20.927Z,202.28
2018-07-15T16:35:52.426Z,198.02
2018-07-15T16:38:23.680Z,202.95
2018-07-15T16:40:55.552Z,202.55
2018-07-15T16:43:26.860Z,195.45
2018-07-15T16:45:58.238Z,197.87
2018-07-15T16:48:29.772Z,199.02
2018-07-15T16:51:01.128Z,195.00
2018-07-15T16:53:35.789Z,191.73
2018-07-15T16:56:07.299Z,206.57
2018-07-15T16:58:38.736Z,198.87
2018-07-15T17:01:10.339Z,208.85
2018-07-15T17:03:42.102Z,207.95
2018-07-15T17:06:13.305Z,211.45
2018-07-15T17:08:45.012Z,211.07
2018-07-15T17:11:16.423Z,202.28
2018-07-15T17:13:48.271Z,206.78
2018-07-15T17:16:19.317Z,204.40
2018-07-15T17:18:50.637Z,206.78
2018-07-15T17:21:21.946Z,210.20
2018-07-15T17:23:53.132Z,206.13
2018-07-15T17:26:24.615Z,214.10
2018-07-15T17:28:56.695Z,210.97
2018-07-15T17:31:28.143Z,211.60
2018-07-15T17:33:59.452Z,250.72
2018-07-15T17:36:30.769Z,216.90
2018-07-15T17:39:03.455Z,205.47
2018-07-15T17:41:35.044Z,203.73
2018-07-15T17:44:06.494Z,208.20
2018-07-15T17:46:37.970Z,211.12
2018-07-15T17:49:09.943Z,205.95
2018-07-15T17:51:41.069Z,203.45
2018-07-15T17:54:12.465Z,207.10
2018-07-15T17:56:44.023Z,202.00
2018-07-15T17:59:16.782Z,202.87
2018-07-15T18:01:49.916Z,193.97
2018-07-15T18:04:21.425Z,199.97
2018-07-15T18:06:52.888Z,195.60
2018-07-15T18:09:24.870Z,196.65
2018-07-15T18:11:56.209Z,200.62
2018-07-15T18:14:28.009Z,200.13
2018-07-15T18:16:59.312Z,194.22
2018-07-15T18:19:30.680Z,189.67
2018-07-15T18:22:02.935Z,191.62
2018-07-15T18:24:35.252Z,197.60
2018-07-15T18:27:07.406Z,193.82
2018-07-15T18:29:39.672Z,197.32
2018-07-15T18:32:12.244Z,201.77
2018-07-15T18:34:45.968Z,202.75
2018-07-15T18:37:18.478Z,204.20
2018-07-15T18:39:50.283Z,196.47
2018-07-15T18:42:22.209Z,201.45
2018-07-15T18:44:54.293Z,203.62
2018-07-15T18:47:26.143Z,200.22
2018-07-15T18:49:58.006Z,203.90
2018-07-15T18:52:29.604Z,199.00
2018-07-15T18:55:02.407Z,199.95
2018-07-15T18:57:34.396Z,199.40
2018-07-15T19:00:09.555Z,200.10
2018-07-15T19:02:43.265Z,194.47
2018-07-15T19:05:19.517Z,196.53
2018-07-15T19:07:53.037Z,192.20
2018-07-15T19:10:24.791Z,194.25
2018-07-15T19:12:58.926Z,193.07
2018-07-15T19:15:32.605Z,193.15
2018-07-15T19:18:06.277Z,194.28
2018-07-15T19:20:39.522Z,197.75
2018-07-15T19:23:12.577Z,195.47
2018-07-15T19:25:46.208Z,192.18
2018-07-15T19:28:18.442Z,195.57
2018-07-15T19:30:50.056Z,248.90
2018-07-15T19:33:26.079Z,200.82
2018-07-15T19:35:57.764Z,203.18
2018-07-15T19:38:29.631Z,198.10
2018-07-15T19:41:02.091Z,201.27
2018-07-15T19:43:33.932Z,193.80
2018-07-15T19:46:06.273Z,196.07
2018-07-15T19:48:38.245Z,194.30
2018-07-15T19:51:10.602Z,200.93
2018-07-15T19:53:42.256Z,192.20
2018-07-15T19:56:13.827Z,198.72
2018-07-15T19:58:45.900Z,196.65
2018-07-15T20:01:17.329Z,197.85
2018-07-15T20:03:55.740Z,193.90
2018-07-15T20:06:27.457Z,201.62
2018-07-15T20:08:59.129Z,218.42
2018-07-15T20:11:30.857Z,198.75
2018-07-15T20:14:01.946Z,200.78
2018-07-15T20:16:33.405Z,195.07
2018-07-15T20:19:05.168Z,197.78
2018-07-15T20:21:36.452Z,194.37
2018-07-15T20:24:07.843Z,193.75
2018-07-15T20:26:39.219Z,200.50
2018-07-15T20:29:10.483Z,198.35
2018-07-15T20:32:00.637Z,185.80
2018-07-15T20:34:32.805Z,192.95
2018-07-15T20:37:04.351Z,191.15
2018-07-15T20:39:35.508Z,194.10
2018-07-15T20:42:07.903Z,192.90
2018-07-15T20:44:39.214Z,187.85
2018-07-15T20:47:11.497Z,193.82
2018-07-15T20:49:42.883Z,191.70
2018-07-15T20:52:14.144Z,192.47
2018-07-15T20:54:45.669Z,192.75
2018-07-15T20:57:17.259Z,196.28
2018-07-15T20:59:48.718Z,192.72
2018-07-15T21:02:19.775Z,199.27
2018-07-15T21:04:51.019Z,193.87
2018-07-15T21:07:22.472Z,192.35
2018-07-15T21:09:54.144Z,192.82
2018-07-15T21:12:25.329Z,194.13
2018-07-15T21:14:56.370Z,191.95
2018-07-15T21:17:27.664Z,192.32
2018-07-15T21:19:59.225Z,194.65
2018-07-15T21:22:30.982Z,194.20
2018-07-15T21:25:15.958Z,193.43
2018-07-15T21:27:48.259Z,190.45
2018-07-15T21:30:21.999Z,193.55
2018-07-15T21:32:54.787Z,193.78
2018-07-15T21:35:29.089Z,191.90
2018-07-15T21:38:00.659Z,194.10
2018-07-15T21:40:33.319Z,195.97
2018-07-15T21:43:05.999Z,193.65
2018-07-15T21:45:38.439Z,194.52
2018-07-15T21:48:12.376Z,191.77
2018-07-15T21:50:44.502Z,191.95
2018-07-15T21:53:15.467Z,192.65
2018-07-15T21:55:47.025Z,190.62
2018-07-15T21:58:18.192Z,188.05
2018-07-15T22:00:49.973Z,187.82
2018-07-15T22:03:21.284Z,190.28
2018-07-15T22:05:52.548Z,192.57
2018-07-15T22:08:34.410Z,189.13
2018-07-15T22:11:06.374Z,187.07
2018-07-15T22:13:37.826Z,189.13
2018-07-15T22:16:09.381Z,187.27
2018-07-15T22:18:40.395Z,187.00
2018-07-15T22:21:11.723Z,187.57
2018-07-15T22:23:42.851Z,187.75
2018-07-15T22:26:15.103Z,187.40
2018-07-15T22:28:46.399Z,186.35
2018-07-15T22:31:17.787Z,185.50
2018-07-15T22:33:48.811Z,189.55
2018-07-15T22:36:20.793Z,189.67
2018-07-15T22:38:52.031Z,185.73
2018-07-15T22:41:23.207Z,185.85
2018-07-15T22:43:54.880Z,187.10
2018-07-15T22:46:26.327Z,186.40
2018-07-15T22:48:57.675Z,188.80
2018-07-15T22:51:28.812Z,193.37
2018-07-15T22:53:59.922Z,191.68
2018-07-15T22:56:31.392Z,187.18
2018-07-15T22:59:02.633Z,195.12
2018-07-15T23:01:33.828Z,195.97
2018-07-15T23:04:04.997Z,189.95
2018-07-15T23:06:38.864Z,188.05
2018-07-15T23:09:11.056Z,191.55
2018-07-15T23:11:42.714Z,191.07
2018-07-15T23:14:13.752Z,190.10
2018-07-15T23:16:45.138Z,189.55
2018-07-15T23:19:16.452Z,189.35
2018-07-15T23:21:47.652Z,190.65
2018-07-15T23:24:18.587Z,191.40
2018-07-15T23:26:49.668Z,192.68
2018-07-15T23:29:21.090Z,196.60
2018-07-15T23:31:52.568Z,193.80
2018-07-15T23:34:23.640Z,192.82
2018-07-15T23:36:55.199Z,194.72
2018-07-15T23:39:26.284Z,190.85
2018-07-15T23:45:01.263Z,197.65
2018-07-15T23:47:34.664Z,196.05
2018-07-15T23:50:06.958Z,185.85
2018-07-15T23:52:37.982Z,189.55
2018-07-15T23:55:09.402Z,190.65
2018-07-15T23:57:40.317Z,185.90
